sensor_id;sensor_type;location;lat;lon;timestamp;P1;durP1;ratioP1;P2;durP2;ratioP2
2838;SDS011;1427;48.510;9.060;2023-12-20T00:02:17;45.70;;;2.20;;
2838;SDS011;1427;48.510;9.060;2023-12-20T00:04:45;45.00;;;1.50;;
2838;SDS011;1427;48.510;9.060;2023-12-20T00:07:13;45.30;;;1.70;;
2838;SDS011;1427;48.510;9.060;2023-12-20T00:09:41;45.30;;;1.70;;
2838;SDS011;1427;48.510;9.060;2023-12-20T00:12:10;44.93;;;1.63;;
2838;SDS011;1427;48.510;9.060;2023-12-20T00:14:38;44.97;;;1.60;;
2838;SDS011;1427;48.510;9.060;2023-12-20T00:17:07;46.03;;;1.90;;
2838;SDS011;1427;48.510;9.060;2023-12-20T00:19:35;45.17;;;1.73;;
2838;SDS011;1427;48.510;9.060;2023-12-20T00:22:03;45.23;;;1.83;;
2838;SDS011;1427;48.510;9.060;2023-12-20T00:24:31;45.63;;;1.77;;
2838;SDS011;1427;48.510;9.060;2023-12-20T00:27:00;48.50;;;2.00;;
2838;SDS011;1427;48.510;9.060;2023-12-20T00:29:28;45.27;;;2.07;;
2838;SDS011;1427;48.510;9.060;2023-12-20T00:31:56;46.20;;;2.10;;
2838;SDS011;1427;48.510;9.060;2023-12-20T00:34:26;45.37;;;1.73;;
2838;SDS011;1427;48.510;9.060;2023-12-20T00:36:57;46.10;;;2.10;;
2838;SDS011;1427;48.510;9.060;2023-12-20T00:39:25;45.70;;;2.27;;
2838;SDS011;1427;48.510;9.060;2023-12-20T00:41:53;46.00;;;1.80;;
2838;SDS011;1427;48.510;9.060;2023-12-20T00:44:21;45.47;;;1.90;;
2838;SDS011;1427;48.510;9.060;2023-12-20T00:46:49;45.27;;;1.80;;
2838;SDS011;1427;48.510;9.060;2023-12-20T00:49:17;44.97;;;1.50;;
2838;SDS011;1427;48.510;9.060;2023-12-20T00:51:47;45.70;;;1.73;;
2838;SDS011;1427;48.510;9.060;2023-12-20T00:54:17;48.93;;;2.40;;
2838;SDS011;1427;48.510;9.060;2023-12-20T00:56:45;46.37;;;2.00;;
2838;SDS011;1427;48.510;9.060;2023-12-20T00:59:13;45.10;;;1.90;;
2838;SDS011;1427;48.510;9.060;2023-12-20T01:01:42;45.67;;;2.07;;
2838;SDS011;1427;48.510;9.060;2023-12-20T01:04:10;46.40;;;2.20;;
2838;SDS011;1427;48.510;9.060;2023-12-20T01:06:39;45.40;;;1.70;;
2838;SDS011;1427;48.510;9.060;2023-12-20T01:09:08;45.87;;;1.97;;
2838;SDS011;1427;48.510;9.060;2023-12-20T01:11:36;44.67;;;1.50;;
2838;SDS011;1427;48.510;9.060;2023-12-20T01:14:04;45.00;;;1.73;;
2838;SDS011;1427;48.510;9.060;2023-12-20T01:16:32;45.77;;;2.00;;
2838;SDS011;1427;48.510;9.060;2023-12-20T01:19:00;45.60;;;1.70;;
2838;SDS011;1427;48.510;9.060;2023-12-20T01:21:29;45.33;;;2.13;;
2838;SDS011;1427;48.510;9.060;2023-12-20T01:23:57;45.37;;;2.23;;
2838;SDS011;1427;48.510;9.060;2023-12-20T01:26:26;45.37;;;1.60;;
2838;SDS011;1427;48.510;9.060;2023-12-20T01:28:55;45.83;;;1.93;;
2838;SDS011;1427;48.510;9.060;2023-12-20T01:31:23;45.53;;;2.20;;
2838;SDS011;1427;48.510;9.060;2023-12-20T01:33:51;44.70;;;1.50;;
2838;SDS011;1427;48.510;9.060;2023-12-20T01:36:19;45.53;;;2.00;;
2838;SDS011;1427;48.510;9.060;2023-12-20T01:38:47;45.37;;;2.00;;
2838;SDS011;1427;48.510;9.060;2023-12-20T01:41:15;44.90;;;1.47;;
2838;SDS011;1427;48.510;9.060;2023-12-20T01:43:45;44.90;;;1.70;;
2838;SDS011;1427;48.510;9.060;2023-12-20T01:46:17;45.70;;;2.07;;
2838;SDS011;1427;48.510;9.060;2023-12-20T01:48:47;45.10;;;1.77;;
2838;SDS011;1427;48.510;9.060;2023-12-20T01:51:16;46.20;;;2.17;;
2838;SDS011;1427;48.510;9.060;2023-12-20T01:53:44;45.23;;;1.93;;
2838;SDS011;1427;48.510;9.060;2023-12-20T01:56:13;46.57;;;2.03;;
2838;SDS011;1427;48.510;9.060;2023-12-20T01:58:44;45.20;;;1.73;;
2838;SDS011;1427;48.510;9.060;2023-12-20T02:01:13;47.33;;;2.73;;
2838;SDS011;1427;48.510;9.060;2023-12-20T02:03:42;45.00;;;1.70;;
2838;SDS011;1427;48.510;9.060;2023-12-20T02:06:11;45.00;;;1.57;;
2838;SDS011;1427;48.510;9.060;2023-12-20T02:08:39;44.60;;;1.70;;
2838;SDS011;1427;48.510;9.060;2023-12-20T02:11:07;46.23;;;2.00;;
2838;SDS011;1427;48.510;9.060;2023-12-20T02:13:35;47.53;;;2.30;;
2838;SDS011;1427;48.510;9.060;2023-12-20T02:16:05;45.30;;;1.70;;
2838;SDS011;1427;48.510;9.060;2023-12-20T02:18:34;48.20;;;2.00;;
2838;SDS011;1427;48.510;9.060;2023-12-20T02:21:03;44.87;;;1.50;;
2838;SDS011;1427;48.510;9.060;2023-12-20T02:23:33;45.33;;;1.50;;
2838;SDS011;1427;48.510;9.060;2023-12-20T02:26:02;45.90;;;2.20;;
2838;SDS011;1427;48.510;9.060;2023-12-20T02:28:32;45.77;;;2.60;;
2838;SDS011;1427;48.510;9.060;2023-12-20T02:31:01;45.10;;;1.63;;
2838;SDS011;1427;48.510;9.060;2023-12-20T02:33:30;45.00;;;1.80;;
2838;SDS011;1427;48.510;9.060;2023-12-20T02:35:58;54.80;;;1.77;;
2838;SDS011;1427;48.510;9.060;2023-12-20T02:38:26;44.30;;;1.63;;
2838;SDS011;1427;48.510;9.060;2023-12-20T02:40:55;45.53;;;1.70;;
2838;SDS011;1427;48.510;9.060;2023-12-20T02:43:23;45.20;;;2.00;;
2838;SDS011;1427;48.510;9.060;2023-12-20T02:45:51;44.87;;;1.63;;
2838;SDS011;1427;48.510;9.060;2023-12-20T02:48:19;45.17;;;1.97;;
2838;SDS011;1427;48.510;9.060;2023-12-20T02:50:47;44.77;;;1.60;;
2838;SDS011;1427;48.510;9.060;2023-12-20T02:53:16;44.50;;;1.60;;
2838;SDS011;1427;48.510;9.060;2023-12-20T02:55:44;46.00;;;2.37;;
2838;SDS011;1427;48.510;9.060;2023-12-20T02:58:13;44.70;;;1.60;;
2838;SDS011;1427;48.510;9.060;2023-12-20T03:00:43;44.80;;;1.50;;
2838;SDS011;1427;48.510;9.060;2023-12-20T03:03:12;46.80;;;2.60;;
2838;SDS011;1427;48.510;9.060;2023-12-20T03:05:39;44.67;;;1.77;;
2838;SDS011;1427;48.510;9.060;2023-12-20T03:08:07;45.17;;;1.87;;
2838;SDS011;1427;48.510;9.060;2023-12-20T03:10:35;45.37;;;1.97;;
2838;SDS011;1427;48.510;9.060;2023-12-20T03:13:03;44.80;;;1.67;;
2838;SDS011;1427;48.510;9.060;2023-12-20T03:15:33;45.10;;;2.03;;
2838;SDS011;1427;48.510;9.060;2023-12-20T03:18:01;47.33;;;2.60;;
2838;SDS011;1427;48.510;9.060;2023-12-20T03:20:29;49.20;;;2.93;;
2838;SDS011;1427;48.510;9.060;2023-12-20T03:23:00;46.00;;;1.73;;
2838;SDS011;1427;48.510;9.060;2023-12-20T03:25:28;45.77;;;2.07;;
2838;SDS011;1427;48.510;9.060;2023-12-20T03:27:56;45.50;;;1.83;;
2838;SDS011;1427;48.510;9.060;2023-12-20T03:30:24;45.90;;;1.87;;
2838;SDS011;1427;48.510;9.060;2023-12-20T03:32:54;45.33;;;1.83;;
2838;SDS011;1427;48.510;9.060;2023-12-20T03:35:22;46.00;;;2.27;;
2838;SDS011;1427;48.510;9.060;2023-12-20T03:37:50;45.80;;;1.90;;
2838;SDS011;1427;48.510;9.060;2023-12-20T03:40:18;45.93;;;2.07;;
2838;SDS011;1427;48.510;9.060;2023-12-20T03:42:46;45.20;;;1.63;;
2838;SDS011;1427;48.510;9.060;2023-12-20T03:45:14;45.90;;;2.07;;
2838;SDS011;1427;48.510;9.060;2023-12-20T03:47:42;45.30;;;1.90;;
2838;SDS011;1427;48.510;9.060;2023-12-20T03:50:12;44.80;;;1.57;;
2838;SDS011;1427;48.510;9.060;2023-12-20T03:52:40;45.33;;;1.80;;
2838;SDS011;1427;48.510;9.060;2023-12-20T03:55:09;45.37;;;1.90;;
2838;SDS011;1427;48.510;9.060;2023-12-20T03:57:37;45.37;;;1.80;;
2838;SDS011;1427;48.510;9.060;2023-12-20T04:00:06;47.70;;;2.53;;
2838;SDS011;1427;48.510;9.060;2023-12-20T04:02:36;44.97;;;1.80;;
2838;SDS011;1427;48.510;9.060;2023-12-20T04:05:04;44.80;;;1.60;;
2838;SDS011;1427;48.510;9.060;2023-12-20T04:07:35;45.40;;;1.80;;
2838;SDS011;1427;48.510;9.060;2023-12-20T04:10:03;45.57;;;1.87;;
2838;SDS011;1427;48.510;9.060;2023-12-20T04:12:32;45.30;;;1.70;;
2838;SDS011;1427;48.510;9.060;2023-12-20T04:15:00;44.40;;;1.60;;
2838;SDS011;1427;48.510;9.060;2023-12-20T04:17:30;44.90;;;1.67;;
2838;SDS011;1427;48.510;9.060;2023-12-20T04:19:57;46.70;;;1.90;;
2838;SDS011;1427;48.510;9.060;2023-12-20T04:22:26;45.13;;;1.30;;
2838;SDS011;1427;48.510;9.060;2023-12-20T04:24:55;44.67;;;1.70;;
2838;SDS011;1427;48.510;9.060;2023-12-20T04:27:23;45.17;;;1.43;;
2838;SDS011;1427;48.510;9.060;2023-12-20T04:29:51;45.10;;;1.40;;
2838;SDS011;1427;48.510;9.060;2023-12-20T04:32:19;44.90;;;1.50;;
2838;SDS011;1427;48.510;9.060;2023-12-20T04:34:48;45.77;;;2.17;;
2838;SDS011;1427;48.510;9.060;2023-12-20T04:37:16;44.93;;;1.50;;
2838;SDS011;1427;48.510;9.060;2023-12-20T04:39:44;45.27;;;1.80;;
2838;SDS011;1427;48.510;9.060;2023-12-20T04:42:13;45.03;;;1.43;;
2838;SDS011;1427;48.510;9.060;2023-12-20T04:44:41;44.90;;;1.50;;
2838;SDS011;1427;48.510;9.060;2023-12-20T04:47:10;45.43;;;2.13;;
2838;SDS011;1427;48.510;9.060;2023-12-20T04:49:38;45.10;;;1.60;;
2838;SDS011;1427;48.510;9.060;2023-12-20T04:52:06;45.10;;;1.70;;
2838;SDS011;1427;48.510;9.060;2023-12-20T04:54:34;49.05;;;2.00;;
2838;SDS011;1427;48.510;9.060;2023-12-20T04:57:02;48.30;;;1.85;;
2838;SDS011;1427;48.510;9.060;2023-12-20T04:59:31;45.00;;;1.77;;
2838;SDS011;1427;48.510;9.060;2023-12-20T05:02:01;45.07;;;1.77;;
2838;SDS011;1427;48.510;9.060;2023-12-20T05:04:29;45.20;;;1.73;;
2838;SDS011;1427;48.510;9.060;2023-12-20T05:06:57;45.17;;;1.50;;
2838;SDS011;1427;48.510;9.060;2023-12-20T05:09:25;45.17;;;1.50;;
2838;SDS011;1427;48.510;9.060;2023-12-20T05:11:53;45.10;;;1.40;;
2838;SDS011;1427;48.510;9.060;2023-12-20T05:14:21;46.20;;;2.17;;
2838;SDS011;1427;48.510;9.060;2023-12-20T05:16:50;45.17;;;1.60;;
2838;SDS011;1427;48.510;9.060;2023-12-20T05:19:18;45.13;;;1.30;;
2838;SDS011;1427;48.510;9.060;2023-12-20T05:21:46;44.90;;;1.53;;
2838;SDS011;1427;48.510;9.060;2023-12-20T05:24:15;45.10;;;1.73;;
2838;SDS011;1427;48.510;9.060;2023-12-20T05:26:43;45.07;;;1.20;;
2838;SDS011;1427;48.510;9.060;2023-12-20T05:29:15;45.27;;;1.50;;
2838;SDS011;1427;48.510;9.060;2023-12-20T05:31:43;45.33;;;1.60;;
2838;SDS011;1427;48.510;9.060;2023-12-20T05:34:12;45.00;;;1.30;;
2838;SDS011;1427;48.510;9.060;2023-12-20T05:36:40;44.60;;;1.40;;
2838;SDS011;1427;48.510;9.060;2023-12-20T05:39:09;44.50;;;1.63;;
2838;SDS011;1427;48.510;9.060;2023-12-20T05:41:37;44.97;;;1.30;;
2838;SDS011;1427;48.510;9.060;2023-12-20T05:44:05;45.13;;;1.47;;
2838;SDS011;1427;48.510;9.060;2023-12-20T05:46:33;45.27;;;1.90;;
2838;SDS011;1427;48.510;9.060;2023-12-20T05:49:01;45.10;;;1.63;;
2838;SDS011;1427;48.510;9.060;2023-12-20T05:51:31;45.07;;;1.67;;
2838;SDS011;1427;48.510;9.060;2023-12-20T05:53:59;45.33;;;1.60;;
2838;SDS011;1427;48.510;9.060;2023-12-20T05:56:27;45.10;;;1.40;;
2838;SDS011;1427;48.510;9.060;2023-12-20T05:58:55;45.33;;;1.57;;
2838;SDS011;1427;48.510;9.060;2023-12-20T06:01:23;45.27;;;1.70;;
2838;SDS011;1427;48.510;9.060;2023-12-20T06:03:51;45.20;;;1.43;;
2838;SDS011;1427;48.510;9.060;2023-12-20T06:06:20;45.63;;;1.87;;
2838;SDS011;1427;48.510;9.060;2023-12-20T06:08:49;44.90;;;1.50;;
2838;SDS011;1427;48.510;9.060;2023-12-20T06:11:17;45.10;;;1.40;;
2838;SDS011;1427;48.510;9.060;2023-12-20T06:13:45;45.20;;;1.63;;
2838;SDS011;1427;48.510;9.060;2023-12-20T06:16:15;45.60;;;2.10;;
2838;SDS011;1427;48.510;9.060;2023-12-20T06:18:43;44.73;;;1.33;;
2838;SDS011;1427;48.510;9.060;2023-12-20T06:21:11;45.23;;;1.40;;
2838;SDS011;1427;48.510;9.060;2023-12-20T06:23:40;45.57;;;1.90;;
2838;SDS011;1427;48.510;9.060;2023-12-20T06:26:10;44.87;;;1.30;;
2838;SDS011;1427;48.510;9.060;2023-12-20T06:28:38;45.47;;;1.80;;
2838;SDS011;1427;48.510;9.060;2023-12-20T06:31:07;45.30;;;2.03;;
2838;SDS011;1427;48.510;9.060;2023-12-20T06:33:37;45.40;;;1.63;;
2838;SDS011;1427;48.510;9.060;2023-12-20T06:36:07;45.63;;;1.60;;
2838;SDS011;1427;48.510;9.060;2023-12-20T06:38:38;45.17;;;1.53;;
2838;SDS011;1427;48.510;9.060;2023-12-20T06:41:06;45.43;;;1.80;;
2838;SDS011;1427;48.510;9.060;2023-12-20T06:43:35;45.00;;;1.40;;
2838;SDS011;1427;48.510;9.060;2023-12-20T06:46:15;45.67;;;1.83;;
2838;SDS011;1427;48.510;9.060;2023-12-20T06:48:44;45.17;;;1.60;;
2838;SDS011;1427;48.510;9.060;2023-12-20T06:51:14;44.97;;;1.70;;
2838;SDS011;1427;48.510;9.060;2023-12-20T06:53:43;45.00;;;1.53;;
2838;SDS011;1427;48.510;9.060;2023-12-20T06:56:11;46.73;;;1.70;;
2838;SDS011;1427;48.510;9.060;2023-12-20T06:58:45;47.70;;;1.77;;
2838;SDS011;1427;48.510;9.060;2023-12-20T07:01:13;46.30;;;1.60;;
2838;SDS011;1427;48.510;9.060;2023-12-20T07:03:43;44.97;;;1.70;;
2838;SDS011;1427;48.510;9.060;2023-12-20T07:06:11;45.23;;;1.60;;
2838;SDS011;1427;48.510;9.060;2023-12-20T07:08:40;45.20;;;2.00;;
2838;SDS011;1427;48.510;9.060;2023-12-20T07:11:08;44.67;;;1.53;;
2838;SDS011;1427;48.510;9.060;2023-12-20T07:13:36;45.50;;;2.07;;
2838;SDS011;1427;48.510;9.060;2023-12-20T07:16:06;46.70;;;2.10;;
2838;SDS011;1427;48.510;9.060;2023-12-20T07:18:34;45.57;;;1.90;;
2838;SDS011;1427;48.510;9.060;2023-12-20T07:21:02;45.27;;;1.50;;
2838;SDS011;1427;48.510;9.060;2023-12-20T07:23:31;45.37;;;1.70;;
2838;SDS011;1427;48.510;9.060;2023-12-20T07:25:59;45.00;;;1.37;;
2838;SDS011;1427;48.510;9.060;2023-12-20T07:28:27;45.03;;;1.50;;
2838;SDS011;1427;48.510;9.060;2023-12-20T07:30:55;50.17;;;2.38;;
2838;SDS011;1427;48.510;9.060;2023-12-20T07:33:25;46.70;;;1.40;;
2838;SDS011;1427;48.510;9.060;2023-12-20T07:35:53;45.17;;;1.60;;
2838;SDS011;1427;48.510;9.060;2023-12-20T07:38:21;44.80;;;1.73;;
2838;SDS011;1427;48.510;9.060;2023-12-20T07:40:49;45.33;;;1.40;;
2838;SDS011;1427;48.510;9.060;2023-12-20T07:43:17;45.23;;;1.63;;
2838;SDS011;1427;48.510;9.060;2023-12-20T07:45:45;46.57;;;2.30;;
2838;SDS011;1427;48.510;9.060;2023-12-20T07:48:13;45.50;;;2.03;;
2838;SDS011;1427;48.510;9.060;2023-12-20T07:50:43;45.73;;;1.97;;
2838;SDS011;1427;48.510;9.060;2023-12-20T07:53:11;46.00;;;2.33;;
2838;SDS011;1427;48.510;9.060;2023-12-20T07:55:39;46.33;;;3.43;;
2838;SDS011;1427;48.510;9.060;2023-12-20T07:58:07;46.60;;;4.33;;
2838;SDS011;1427;48.510;9.060;2023-12-20T08:00:35;47.83;;;3.93;;
2838;SDS011;1427;48.510;9.060;2023-12-20T08:03:04;49.00;;;6.20;;
2838;SDS011;1427;48.510;9.060;2023-12-20T08:05:33;46.40;;;3.03;;
2838;SDS011;1427;48.510;9.060;2023-12-20T08:08:02;45.20;;;2.20;;
2838;SDS011;1427;48.510;9.060;2023-12-20T08:10:31;48.27;;;6.60;;
2838;SDS011;1427;48.510;9.060;2023-12-20T08:12:59;46.67;;;4.07;;
2838;SDS011;1427;48.510;9.060;2023-12-20T08:15:27;46.60;;;3.93;;
2838;SDS011;1427;48.510;9.060;2023-12-20T08:17:55;46.27;;;3.67;;
2838;SDS011;1427;48.510;9.060;2023-12-20T08:20:23;47.00;;;4.57;;
2838;SDS011;1427;48.510;9.060;2023-12-20T08:23:06;46.90;;;4.50;;
2838;SDS011;1427;48.510;9.060;2023-12-20T08:25:34;46.43;;;3.90;;
2838;SDS011;1427;48.510;9.060;2023-12-20T08:28:03;47.13;;;4.20;;
2838;SDS011;1427;48.510;9.060;2023-12-20T08:30:31;46.00;;;3.47;;
2838;SDS011;1427;48.510;9.060;2023-12-20T08:32:59;46.77;;;4.43;;
2838;SDS011;1427;48.510;9.060;2023-12-20T08:35:29;47.80;;;5.60;;
2838;SDS011;1427;48.510;9.060;2023-12-20T08:37:57;47.13;;;4.90;;
2838;SDS011;1427;48.510;9.060;2023-12-20T08:40:27;46.87;;;4.17;;
2838;SDS011;1427;48.510;9.060;2023-12-20T08:42:55;46.90;;;4.33;;
2838;SDS011;1427;48.510;9.060;2023-12-20T08:45:23;46.10;;;3.60;;
2838;SDS011;1427;48.510;9.060;2023-12-20T08:47:51;47.07;;;4.37;;
2838;SDS011;1427;48.510;9.060;2023-12-20T08:50:19;46.37;;;3.80;;
2838;SDS011;1427;48.510;9.060;2023-12-20T08:52:47;46.43;;;3.80;;
2838;SDS011;1427;48.510;9.060;2023-12-20T08:55:15;46.83;;;4.23;;
2838;SDS011;1427;48.510;9.060;2023-12-20T08:57:46;45.87;;;3.57;;
2838;SDS011;1427;48.510;9.060;2023-12-20T09:00:15;46.30;;;3.77;;
2838;SDS011;1427;48.510;9.060;2023-12-20T09:02:43;47.57;;;5.50;;
2838;SDS011;1427;48.510;9.060;2023-12-20T09:05:11;47.03;;;4.40;;
2838;SDS011;1427;48.510;9.060;2023-12-20T09:07:39;46.37;;;4.13;;
2838;SDS011;1427;48.510;9.060;2023-12-20T09:10:07;46.23;;;4.30;;
2838;SDS011;1427;48.510;9.060;2023-12-20T09:12:36;46.37;;;3.97;;
2838;SDS011;1427;48.510;9.060;2023-12-20T09:15:07;46.37;;;4.10;;
2838;SDS011;1427;48.510;9.060;2023-12-20T09:17:36;46.07;;;3.50;;
2838;SDS011;1427;48.510;9.060;2023-12-20T09:20:04;46.70;;;4.20;;
2838;SDS011;1427;48.510;9.060;2023-12-20T09:22:35;47.30;;;5.00;;
2838;SDS011;1427;48.510;9.060;2023-12-20T09:25:02;46.73;;;4.33;;
2838;SDS011;1427;48.510;9.060;2023-12-20T09:27:30;46.50;;;3.87;;
2838;SDS011;1427;48.510;9.060;2023-12-20T09:29:58;47.17;;;4.87;;
2838;SDS011;1427;48.510;9.060;2023-12-20T09:32:28;46.67;;;3.90;;
2838;SDS011;1427;48.510;9.060;2023-12-20T09:34:56;46.97;;;4.30;;
2838;SDS011;1427;48.510;9.060;2023-12-20T09:37:25;47.13;;;3.87;;
2838;SDS011;1427;48.510;9.060;2023-12-20T09:39:54;46.20;;;3.60;;
2838;SDS011;1427;48.510;9.060;2023-12-20T09:42:29;47.50;;;4.10;;
2838;SDS011;1427;48.510;9.060;2023-12-20T09:45:06;46.73;;;4.23;;
2838;SDS011;1427;48.510;9.060;2023-12-20T09:47:39;46.30;;;3.90;;
2838;SDS011;1427;48.510;9.060;2023-12-20T09:50:09;45.70;;;3.03;;
2838;SDS011;1427;48.510;9.060;2023-12-20T09:52:40;46.10;;;3.37;;
2838;SDS011;1427;48.510;9.060;2023-12-20T09:55:10;48.53;;;4.37;;
2838;SDS011;1427;48.510;9.060;2023-12-20T09:57:39;46.77;;;3.97;;
2838;SDS011;1427;48.510;9.060;2023-12-20T10:00:11;47.10;;;5.17;;
2838;SDS011;1427;48.510;9.060;2023-12-20T10:02:49;50.53;;;4.60;;
2838;SDS011;1427;48.510;9.060;2023-12-20T10:05:28;47.00;;;4.10;;
2838;SDS011;1427;48.510;9.060;2023-12-20T10:08:01;48.00;;;4.03;;
2838;SDS011;1427;48.510;9.060;2023-12-20T10:10:32;47.70;;;3.13;;
2838;SDS011;1427;48.510;9.060;2023-12-20T10:13:13;47.17;;;4.07;;
2838;SDS011;1427;48.510;9.060;2023-12-20T10:15:42;47.10;;;4.00;;
2838;SDS011;1427;48.510;9.060;2023-12-20T10:18:12;55.43;;;4.63;;
2838;SDS011;1427;48.510;9.060;2023-12-20T10:20:45;47.60;;;4.40;;
2838;SDS011;1427;48.510;9.060;2023-12-20T10:23:13;48.10;;;5.53;;
2838;SDS011;1427;48.510;9.060;2023-12-20T10:25:49;47.37;;;4.40;;
2838;SDS011;1427;48.510;9.060;2023-12-20T10:28:24;48.00;;;4.33;;
2838;SDS011;1427;48.510;9.060;2023-12-20T10:30:56;49.50;;;4.97;;
2838;SDS011;1427;48.510;9.060;2023-12-20T10:33:26;47.30;;;3.77;;
2838;SDS011;1427;48.510;9.060;2023-12-20T10:35:59;48.47;;;4.00;;
2838;SDS011;1427;48.510;9.060;2023-12-20T10:38:28;47.50;;;3.90;;
2838;SDS011;1427;48.510;9.060;2023-12-20T10:40:57;47.27;;;3.70;;
2838;SDS011;1427;48.510;9.060;2023-12-20T10:43:26;48.00;;;4.63;;
2838;SDS011;1427;48.510;9.060;2023-12-20T10:45:57;48.53;;;4.57;;
2838;SDS011;1427;48.510;9.060;2023-12-20T10:48:29;49.03;;;4.70;;
2838;SDS011;1427;48.510;9.060;2023-12-20T10:50:59;47.40;;;3.73;;
2838;SDS011;1427;48.510;9.060;2023-12-20T10:53:29;49.63;;;5.03;;
2838;SDS011;1427;48.510;9.060;2023-12-20T10:55:57;47.10;;;3.13;;
2838;SDS011;1427;48.510;9.060;2023-12-20T10:58:30;48.33;;;3.93;;
2838;SDS011;1427;48.510;9.060;2023-12-20T11:01:01;48.73;;;4.47;;
2838;SDS011;1427;48.510;9.060;2023-12-20T11:03:34;49.20;;;4.20;;
2838;SDS011;1427;48.510;9.060;2023-12-20T11:06:05;47.83;;;4.00;;
2838;SDS011;1427;48.510;9.060;2023-12-20T11:08:38;48.60;;;4.90;;
2838;SDS011;1427;48.510;9.060;2023-12-20T11:11:13;48.47;;;4.20;;
2838;SDS011;1427;48.510;9.060;2023-12-20T11:13:53;47.70;;;4.00;;
2838;SDS011;1427;48.510;9.060;2023-12-20T11:16:24;47.43;;;4.43;;
2838;SDS011;1427;48.510;9.060;2023-12-20T11:19:05;49.23;;;5.60;;
2838;SDS011;1427;48.510;9.060;2023-12-20T11:21:34;48.17;;;3.90;;
2838;SDS011;1427;48.510;9.060;2023-12-20T11:24:02;48.67;;;5.20;;
2838;SDS011;1427;48.510;9.060;2023-12-20T11:26:33;47.70;;;4.33;;
2838;SDS011;1427;48.510;9.060;2023-12-20T11:31:57;49.17;;;5.63;;
2838;SDS011;1427;48.510;9.060;2023-12-20T11:34:29;47.33;;;3.63;;
2838;SDS011;1427;48.510;9.060;2023-12-20T11:37:00;48.60;;;3.90;;
2838;SDS011;1427;48.510;9.060;2023-12-20T11:39:30;46.97;;;3.33;;
2838;SDS011;1427;48.510;9.060;2023-12-20T11:42:03;55.10;;;3.70;;
2838;SDS011;1427;48.510;9.060;2023-12-20T11:44:34;47.73;;;3.90;;
2838;SDS011;1427;48.510;9.060;2023-12-20T11:47:04;46.93;;;3.47;;
2838;SDS011;1427;48.510;9.060;2023-12-20T11:49:33;47.27;;;3.80;;
2838;SDS011;1427;48.510;9.060;2023-12-20T11:52:01;46.50;;;3.07;;
2838;SDS011;1427;48.510;9.060;2023-12-20T11:54:30;49.20;;;4.17;;
2838;SDS011;1427;48.510;9.060;2023-12-20T11:56:58;47.27;;;4.23;;
2838;SDS011;1427;48.510;9.060;2023-12-20T11:59:26;48.70;;;4.50;;
2838;SDS011;1427;48.510;9.060;2023-12-20T12:01:54;47.67;;;4.10;;
2838;SDS011;1427;48.510;9.060;2023-12-20T12:04:27;50.40;;;4.50;;
2838;SDS011;1427;48.510;9.060;2023-12-20T12:06:56;50.60;;;4.20;;
2838;SDS011;1427;48.510;9.060;2023-12-20T12:09:25;48.97;;;5.17;;
2838;SDS011;1427;48.510;9.060;2023-12-20T12:11:53;48.30;;;5.53;;
2838;SDS011;1427;48.510;9.060;2023-12-20T12:14:21;48.80;;;5.73;;
2838;SDS011;1427;48.510;9.060;2023-12-20T12:16:49;47.00;;;4.33;;
2838;SDS011;1427;48.510;9.060;2023-12-20T12:19:20;46.70;;;3.43;;
2838;SDS011;1427;48.510;9.060;2023-12-20T12:21:48;47.53;;;4.40;;
2838;SDS011;1427;48.510;9.060;2023-12-20T12:24:20;47.43;;;4.13;;
2838;SDS011;1427;48.510;9.060;2023-12-20T12:26:52;47.23;;;3.90;;
2838;SDS011;1427;48.510;9.060;2023-12-20T12:29:20;47.60;;;4.00;;
2838;SDS011;1427;48.510;9.060;2023-12-20T12:31:48;49.07;;;4.87;;
2838;SDS011;1427;48.510;9.060;2023-12-20T12:34:16;48.20;;;5.13;;
2838;SDS011;1427;48.510;9.060;2023-12-20T12:36:45;47.17;;;4.37;;
2838;SDS011;1427;48.510;9.060;2023-12-20T12:39:14;47.20;;;3.90;;
2838;SDS011;1427;48.510;9.060;2023-12-20T12:41:44;51.57;;;6.43;;
2838;SDS011;1427;48.510;9.060;2023-12-20T12:44:12;47.53;;;4.60;;
2838;SDS011;1427;48.510;9.060;2023-12-20T12:46:43;54.63;;;5.00;;
2838;SDS011;1427;48.510;9.060;2023-12-20T12:49:12;47.20;;;4.30;;
2838;SDS011;1427;48.510;9.060;2023-12-20T12:51:40;47.07;;;4.30;;
2838;SDS011;1427;48.510;9.060;2023-12-20T12:54:09;47.20;;;4.10;;
2838;SDS011;1427;48.510;9.060;2023-12-20T12:56:39;46.97;;;4.00;;
2838;SDS011;1427;48.510;9.060;2023-12-20T12:59:08;49.33;;;5.07;;
2838;SDS011;1427;48.510;9.060;2023-12-20T13:01:37;46.97;;;4.23;;
2838;SDS011;1427;48.510;9.060;2023-12-20T13:04:06;50.00;;;5.07;;
2838;SDS011;1427;48.510;9.060;2023-12-20T13:06:37;48.30;;;5.67;;
2838;SDS011;1427;48.510;9.060;2023-12-20T13:09:07;46.73;;;3.57;;
2838;SDS011;1427;48.510;9.060;2023-12-20T13:11:36;47.20;;;4.50;;
2838;SDS011;1427;48.510;9.060;2023-12-20T13:14:04;48.00;;;4.30;;
2838;SDS011;1427;48.510;9.060;2023-12-20T13:16:33;48.07;;;4.70;;
2838;SDS011;1427;48.510;9.060;2023-12-20T13:19:02;47.50;;;4.80;;
2838;SDS011;1427;48.510;9.060;2023-12-20T13:21:30;47.30;;;4.03;;
2838;SDS011;1427;48.510;9.060;2023-12-20T13:23:58;48.10;;;5.30;;
2838;SDS011;1427;48.510;9.060;2023-12-20T13:26:26;48.23;;;5.63;;
2838;SDS011;1427;48.510;9.060;2023-12-20T13:28:54;46.93;;;4.23;;
2838;SDS011;1427;48.510;9.060;2023-12-20T13:31:23;46.97;;;3.57;;
2838;SDS011;1427;48.510;9.060;2023-12-20T13:33:52;48.03;;;4.70;;
2838;SDS011;1427;48.510;9.060;2023-12-20T13:36:21;57.63;;;4.40;;
2838;SDS011;1427;48.510;9.060;2023-12-20T13:38:49;47.87;;;4.13;;
2838;SDS011;1427;48.510;9.060;2023-12-20T13:41:17;48.07;;;4.13;;
2838;SDS011;1427;48.510;9.060;2023-12-20T13:43:45;48.07;;;4.10;;
2838;SDS011;1427;48.510;9.060;2023-12-20T13:46:13;48.30;;;4.13;;
2838;SDS011;1427;48.510;9.060;2023-12-20T13:48:41;51.80;;;4.77;;
2838;SDS011;1427;48.510;9.060;2023-12-20T13:51:11;48.20;;;4.43;;
2838;SDS011;1427;48.510;9.060;2023-12-20T13:53:39;49.40;;;5.73;;
2838;SDS011;1427;48.510;9.060;2023-12-20T13:56:07;47.93;;;4.30;;
2838;SDS011;1427;48.510;9.060;2023-12-20T13:58:35;51.50;;;4.60;;
2838;SDS011;1427;48.510;9.060;2023-12-20T14:01:04;48.10;;;4.53;;
2838;SDS011;1427;48.510;9.060;2023-12-20T14:03:32;47.80;;;4.70;;
2838;SDS011;1427;48.510;9.060;2023-12-20T14:06:00;47.37;;;4.30;;
2838;SDS011;1427;48.510;9.060;2023-12-20T14:08:30;47.60;;;4.40;;
2838;SDS011;1427;48.510;9.060;2023-12-20T14:10:58;47.40;;;4.27;;
2838;SDS011;1427;48.510;9.060;2023-12-20T14:13:29;48.57;;;5.83;;
2838;SDS011;1427;48.510;9.060;2023-12-20T14:15:58;47.10;;;4.57;;
2838;SDS011;1427;48.510;9.060;2023-12-20T14:18:34;47.87;;;5.43;;
2838;SDS011;1427;48.510;9.060;2023-12-20T14:21:03;47.80;;;4.80;;
2838;SDS011;1427;48.510;9.060;2023-12-20T14:23:37;47.47;;;4.33;;
2838;SDS011;1427;48.510;9.060;2023-12-20T14:26:12;47.37;;;4.33;;
2838;SDS011;1427;48.510;9.060;2023-12-20T14:28:41;47.10;;;4.53;;
2838;SDS011;1427;48.510;9.060;2023-12-20T14:31:10;48.10;;;5.00;;
2838;SDS011;1427;48.510;9.060;2023-12-20T14:33:39;51.77;;;5.23;;
2838;SDS011;1427;48.510;9.060;2023-12-20T14:36:08;47.37;;;4.27;;
2838;SDS011;1427;48.510;9.060;2023-12-20T14:38:42;46.93;;;3.97;;
2838;SDS011;1427;48.510;9.060;2023-12-20T14:41:14;47.40;;;4.00;;
2838;SDS011;1427;48.510;9.060;2023-12-20T14:43:44;47.57;;;4.67;;
2838;SDS011;1427;48.510;9.060;2023-12-20T14:46:13;47.87;;;4.50;;
2838;SDS011;1427;48.510;9.060;2023-12-20T14:48:42;47.80;;;4.67;;
2838;SDS011;1427;48.510;9.060;2023-12-20T14:51:13;48.70;;;5.00;;
2838;SDS011;1427;48.510;9.060;2023-12-20T14:53:44;53.87;;;5.20;;
2838;SDS011;1427;48.510;9.060;2023-12-20T14:56:14;47.87;;;4.90;;
2838;SDS011;1427;48.510;9.060;2023-12-20T14:58:42;48.00;;;4.37;;
2838;SDS011;1427;48.510;9.060;2023-12-20T15:01:10;47.13;;;4.27;;
2838;SDS011;1427;48.510;9.060;2023-12-20T15:03:39;46.80;;;3.97;;
2838;SDS011;1427;48.510;9.060;2023-12-20T15:06:07;47.30;;;4.93;;
2838;SDS011;1427;48.510;9.060;2023-12-20T15:08:38;48.77;;;5.00;;
2838;SDS011;1427;48.510;9.060;2023-12-20T15:11:07;61.53;;;3.87;;
2838;SDS011;1427;48.510;9.060;2023-12-20T15:13:36;45.43;;;2.07;;
2838;SDS011;1427;48.510;9.060;2023-12-20T15:16:04;45.57;;;2.10;;